Time;durP1;ratioP1;P1;durP2;ratioP2;P2;SDS_P1;SDS_P2;PMS_P1;PMS_P2;Temp;Humidity;BMP_temperature;BMP_pressure;BME280_temperature;BME280_humidity;BME280_pressure;Samples;Min_cycle;Max_cycle;Signal;HPM_P1;HPM_P2
2022/07/07 00:00:20;;;;;;;6.35;5.70;;;;;;;;;;5045019;28;20036;-66
2022/07/07 00:02:46;;;;;;;6.32;5.80;;;;;;;;;;5043084;28;20025;-65
2022/07/07 00:05:11;;;;;;;6.07;5.68;;;;;;;;;;5044115;28;20051;-65
2022/07/07 00:07:37;;;;;;;6.18;5.68;;;;;;;;;;5040083;28;20029;-65
2022/07/07 00:10:04;;;;;;;6.60;5.80;;;;;;;;;;5042796;28;20127;-65
2022/07/07 00:12:29;;;;;;;6.30;5.78;;;;;;;;;;5043028;28;20507;-65
2022/07/07 00:14:55;;;;;;;6.20;5.70;;;;;;;;;;5049340;28;20033;-66
2022/07/07 00:17:21;;;;;;;6.72;5.90;;;;;;;;;;5044086;28;20071;-67
2022/07/07 00:19:46;;;;;;;9.25;6.47;;;;;;;;;;5050589;28;20112;-66
2022/07/07 00:22:12;;;;;;;6.22;5.70;;;;;;;;;;5050802;28;20051;-65
2022/07/07 00:24:38;;;;;;;6.75;5.75;;;;;;;;;;5047666;28;20037;-65
2022/07/07 00:27:03;;;;;;;8.10;6.03;;;;;;;;;;5044574;28;20033;-65
2022/07/07 00:29:29;;;;;;;7.32;6.00;;;;;;;;;;5051410;28;20063;-65
2022/07/07 00:31:55;;;;;;;7.95;5.93;;;;;;;;;;5040376;28;20067;-66
2022/07/07 00:34:20;;;;;;;6.57;5.97;;;;;;;;;;5045976;28;20098;-65
2022/07/07 00:36:46;;;;;;;8.70;6.00;;;;;;;;;;5044446;28;20033;-67
2022/07/07 00:39:12;;;;;;;6.93;6.25;;;;;;;;;;5049742;28;20040;-66
2022/07/07 00:41:37;;;;;;;10.18;6.60;;;;;;;;;;5041854;28;20032;-66
2022/07/07 00:44:03;;;;;;;6.35;5.85;;;;;;;;;;5047417;28;20116;-66
2022/07/07 00:46:43;;;;;;;6.82;6.22;;;;;;;;;;5045919;28;20044;-66
2022/07/07 00:49:10;;;;;;;6.80;6.20;;;;;;;;;;5045609;28;20071;-66
2022/07/07 00:51:36;;;;;;;7.00;6.35;;;;;;;;;;5048958;28;20083;-66
2022/07/07 00:54:01;;;;;;;6.53;6.07;;;;;;;;;;5046836;28;20374;-67
2022/07/07 00:56:27;;;;;;;6.10;5.75;;;;;;;;;;5043794;28;20045;-67
2022/07/07 00:58:52;;;;;;;6.15;5.65;;;;;;;;;;5046095;28;20037;-67
2022/07/07 01:01:18;;;;;;;9.25;6.75;;;;;;;;;;5049408;28;20040;-67
2022/07/07 01:03:43;;;;;;;6.50;5.90;;;;;;;;;;5043809;28;20463;-66
2022/07/07 01:06:09;;;;;;;8.45;6.10;;;;;;;;;;5045859;28;20040;-67
2022/07/07 01:08:35;;;;;;;6.75;6.07;;;;;;;;;;5043109;28;20036;-66
2022/07/07 01:11:01;;;;;;;7.78;5.97;;;;;;;;;;5048147;28;20033;-67
2022/07/07 01:13:26;;;;;;;7.07;6.10;;;;;;;;;;5049113;28;20084;-66
2022/07/07 01:15:52;;;;;;;6.45;5.88;;;;;;;;;;5052308;28;20029;-65
2022/07/07 01:18:18;;;;;;;6.65;6.05;;;;;;;;;;5047222;28;20032;-65
2022/07/07 01:20:47;;;;;;;6.38;5.78;;;;;;;;;;5047959;28;20037;-65
2022/07/07 01:23:13;;;;;;;6.40;5.90;;;;;;;;;;5044022;28;20389;-65
2022/07/07 01:25:39;;;;;;;6.70;6.10;;;;;;;;;;5047208;28;20029;-65
2022/07/07 01:28:04;;;;;;;8.52;6.50;;;;;;;;;;5046372;28;20052;-64
2022/07/07 01:30:30;;;;;;;9.07;5.97;;;;;;;;;;5057453;28;20426;-67
2022/07/07 01:32:56;;;;;;;7.38;6.20;;;;;;;;;;5042328;28;20422;-65
2022/07/07 01:35:21;;;;;;;6.32;5.82;;;;;;;;;;5046310;28;20059;-65
2022/07/07 01:37:47;;;;;;;6.38;5.88;;;;;;;;;;5045154;28;20043;-65
2022/07/07 01:40:13;;;;;;;7.22;6.28;;;;;;;;;;5043503;28;20032;-67
2022/07/07 01:42:38;;;;;;;8.60;6.05;;;;;;;;;;5044293;28;20064;-66
2022/07/07 01:45:04;;;;;;;6.72;6.05;;;;;;;;;;5043303;28;20037;-66
2022/07/07 01:47:31;;;;;;;7.28;6.00;;;;;;;;;;5045546;28;20113;-65
2022/07/07 01:49:56;;;;;;;7.18;6.40;;;;;;;;;;5043632;28;20060;-66
2022/07/07 01:52:22;;;;;;;6.75;6.25;;;;;;;;;;5047836;28;20111;-65
2022/07/07 01:54:47;;;;;;;8.98;6.30;;;;;;;;;;5040650;28;20387;-65
2022/07/07 01:57:13;;;;;;;7.13;6.53;;;;;;;;;;5044353;28;20041;-66
2022/07/07 01:59:39;;;;;;;6.95;6.15;;;;;;;;;;5044989;28;20108;-64
2022/07/07 02:02:05;;;;;;;6.80;6.30;;;;;;;;;;5046545;28;20040;-65
2022/07/07 02:04:31;;;;;;;6.63;6.20;;;;;;;;;;5039240;28;20041;-65
2022/07/07 02:06:57;;;;;;;7.10;6.38;;;;;;;;;;5048626;28;20036;-65
2022/07/07 02:09:22;;;;;;;6.97;6.30;;;;;;;;;;5045728;28;20036;-67
2022/07/07 02:11:48;;;;;;;7.18;6.45;;;;;;;;;;5046414;28;20091;-67
2022/07/07 02:14:14;;;;;;;7.05;6.47;;;;;;;;;;5043214;28;20033;-67
2022/07/07 02:16:39;;;;;;;6.75;6.25;;;;;;;;;;5047408;28;20043;-66
2022/07/07 02:19:06;;;;;;;7.07;6.28;;;;;;;;;;5044435;28;20032;-66
2022/07/07 02:21:32;;;;;;;6.70;6.00;;;;;;;;;;5045179;28;20102;-66
2022/07/07 02:23:59;;;;;;;6.95;6.25;;;;;;;;;;5046154;28;20040;-66
2022/07/07 02:26:25;;;;;;;6.75;6.15;;;;;;;;;;5043069;28;20029;-66
2022/07/07 02:28:51;;;;;;;7.10;6.32;;;;;;;;;;5043334;28;20036;-66
2022/07/07 02:31:17;;;;;;;7.40;6.80;;;;;;;;;;5045062;28;20129;-65
2022/07/07 02:33:43;;;;;;;6.90;6.13;;;;;;;;;;5042755;28;20108;-66
2022/07/07 02:36:10;;;;;;;6.60;6.10;;;;;;;;;;5044467;28;20128;-66
2022/07/07 02:38:37;;;;;;;6.80;6.20;;;;;;;;;;5045708;28;20032;-66
2022/07/07 02:41:04;;;;;;;7.68;6.47;;;;;;;;;;5044622;28;20434;-65
2022/07/07 02:43:29;;;;;;;6.90;6.30;;;;;;;;;;5042210;28;20559;-66
2022/07/07 02:45:55;;;;;;;7.07;6.47;;;;;;;;;;5046509;28;20115;-66
2022/07/07 02:48:23;;;;;;;7.18;6.68;;;;;;;;;;5042864;28;20037;-66
2022/07/07 02:50:49;;;;;;;7.35;6.22;;;;;;;;;;5044329;28;20040;-66
2022/07/07 02:53:17;;;;;;;8.20;6.45;;;;;;;;;;5031920;28;20128;-66
2022/07/07 02:55:43;;;;;;;8.23;6.20;;;;;;;;;;5042080;28;20041;-65
2022/07/07 02:58:11;;;;;;;8.38;6.20;;;;;;;;;;5044004;28;20035;-65
2022/07/07 03:00:38;;;;;;;8.85;6.65;;;;;;;;;;5043158;28;20037;-66
2022/07/07 03:03:06;;;;;;;7.80;6.13;;;;;;;;;;5041964;28;20056;-66
2022/07/07 03:05:32;;;;;;;7.05;6.35;;;;;;;;;;5040536;28;20428;-66
2022/07/07 03:07:58;;;;;;;6.40;6.00;;;;;;;;;;5044448;28;20047;-66
2022/07/07 03:10:23;;;;;;;6.68;6.00;;;;;;;;;;5042655;28;20916;-66
2022/07/07 03:12:49;;;;;;;6.53;5.93;;;;;;;;;;5041453;28;20036;-64
2022/07/07 03:15:15;;;;;;;7.10;6.00;;;;;;;;;;5047199;28;20032;-65
2022/07/07 03:17:42;;;;;;;7.82;6.10;;;;;;;;;;5041780;28;20677;-65
2022/07/07 03:20:09;;;;;;;6.60;6.03;;;;;;;;;;5043726;28;20033;-65
2022/07/07 03:22:35;;;;;;;8.55;6.32;;;;;;;;;;5041699;28;20136;-64
2022/07/07 03:25:01;;;;;;;6.47;5.90;;;;;;;;;;5045909;28;20112;-64
2022/07/07 03:27:26;;;;;;;7.00;6.30;;;;;;;;;;5033160;28;20028;-64
2022/07/07 03:29:52;;;;;;;6.72;6.10;;;;;;;;;;5042487;28;20044;-66
2022/07/07 03:32:18;;;;;;;6.72;6.10;;;;;;;;;;5041494;28;20037;-66
2022/07/07 03:34:43;;;;;;;6.88;6.10;;;;;;;;;;5046343;28;20029;-65
2022/07/07 03:37:09;;;;;;;6.63;6.03;;;;;;;;;;5042184;28;20547;-66
2022/07/07 03:39:35;;;;;;;6.50;6.00;;;;;;;;;;5045307;28;20033;-66
2022/07/07 03:42:00;;;;;;;6.72;6.13;;;;;;;;;;5045659;28;20033;-66
2022/07/07 03:44:26;;;;;;;8.18;6.30;;;;;;;;;;5039320;28;20060;-64
2022/07/07 03:46:51;;;;;;;8.90;6.63;;;;;;;;;;5047469;28;20033;-64
2022/07/07 03:49:17;;;;;;;6.82;6.20;;;;;;;;;;5047135;28;20037;-64
2022/07/07 03:51:42;;;;;;;6.45;5.95;;;;;;;;;;5039997;28;20033;-64
2022/07/07 03:54:09;;;;;;;7.80;6.28;;;;;;;;;;5042402;28;20032;-65
2022/07/07 03:56:35;;;;;;;8.00;6.78;;;;;;;;;;5044358;28;20033;-65
2022/07/07 03:59:01;;;;;;;7.30;6.65;;;;;;;;;;5045356;28;20585;-66
2022/07/07 04:01:27;;;;;;;6.97;6.38;;;;;;;;;;5044790;28;20029;-66
2022/07/07 04:03:53;;;;;;;6.80;6.40;;;;;;;;;;5041090;28;20029;-65
2022/07/07 04:06:18;;;;;;;7.03;6.50;;;;;;;;;;5046027;28;20044;-65
2022/07/07 04:08:44;;;;;;;7.43;6.47;;;;;;;;;;5041271;28;20033;-65
2022/07/07 04:11:09;;;;;;;8.43;6.22;;;;;;;;;;5046225;28;20040;-66
2022/07/07 04:13:35;;;;;;;7.28;6.65;;;;;;;;;;5050427;28;20044;-66
2022/07/07 04:16:01;;;;;;;7.07;6.50;;;;;;;;;;5050235;28;20037;-66
2022/07/07 04:18:26;;;;;;;7.07;6.25;;;;;;;;;;5046672;28;20038;-67
2022/07/07 04:20:52;;;;;;;7.45;6.20;;;;;;;;;;5053325;28;20173;-66
2022/07/07 04:23:18;;;;;;;7.00;6.50;;;;;;;;;;5050360;28;20033;-66
2022/07/07 04:25:43;;;;;;;6.75;6.15;;;;;;;;;;5047404;28;20079;-66
2022/07/07 04:28:09;;;;;;;8.48;6.50;;;;;;;;;;5041867;28;20024;-65
2022/07/07 04:30:34;;;;;;;7.15;6.45;;;;;;;;;;5042590;28;20033;-66
2022/07/07 04:33:00;;;;;;;7.75;6.10;;;;;;;;;;5047963;28;20044;-65
2022/07/07 04:35:25;;;;;;;7.68;6.82;;;;;;;;;;5042361;28;20041;-66
2022/07/07 04:37:51;;;;;;;7.28;6.47;;;;;;;;;;5041606;28;20139;-67
2022/07/07 04:40:17;;;;;;;8.98;6.50;;;;;;;;;;5042303;28;20035;-65
2022/07/07 04:42:42;;;;;;;9.48;6.40;;;;;;;;;;5038313;28;20045;-66
2022/07/07 04:45:09;;;;;;;8.75;6.35;;;;;;;;;;5042464;28;20037;-66
2022/07/07 04:47:42;;;;;;;7.20;6.50;;;;;;;;;;5046950;28;20025;-65
2022/07/07 04:50:09;;;;;;;7.40;6.75;;;;;;;;;;5039696;28;20033;-66
2022/07/07 04:52:35;;;;;;;6.82;6.30;;;;;;;;;;5038252;28;20041;-64
2022/07/07 04:55:00;;;;;;;6.75;6.28;;;;;;;;;;5040527;28;20048;-65
2022/07/07 04:57:26;;;;;;;10.30;6.65;;;;;;;;;;5047217;28;20037;-65
2022/07/07 04:59:52;;;;;;;8.32;6.60;;;;;;;;;;5041642;28;20029;-65
2022/07/07 05:02:18;;;;;;;7.00;6.50;;;;;;;;;;5042693;28;20024;-65
2022/07/07 05:04:44;;;;;;;7.07;6.55;;;;;;;;;;5039457;28;20059;-65
2022/07/07 05:07:09;;;;;;;7.78;6.75;;;;;;;;;;5047001;28;20033;-65
2022/07/07 05:09:35;;;;;;;6.90;6.40;;;;;;;;;;5045443;28;20029;-64
2022/07/07 05:12:01;;;;;;;9.50;6.57;;;;;;;;;;5043475;28;20033;-65
2022/07/07 05:14:28;;;;;;;7.20;6.70;;;;;;;;;;5044536;28;20048;-65
2022/07/07 05:16:54;;;;;;;7.00;6.50;;;;;;;;;;5042936;28;20083;-65
2022/07/07 05:19:20;;;;;;;7.43;6.72;;;;;;;;;;5046310;28;20041;-66
2022/07/07 05:21:45;;;;;;;7.53;6.88;;;;;;;;;;5042656;28;20412;-65
2022/07/07 05:24:11;;;;;;;7.65;6.97;;;;;;;;;;5045823;28;20124;-64
2022/07/07 05:26:37;;;;;;;7.63;6.85;;;;;;;;;;5044683;28;20492;-65
2022/07/07 05:29:02;;;;;;;7.25;6.70;;;;;;;;;;5046389;28;20476;-67
2022/07/07 05:31:28;;;;;;;7.43;6.72;;;;;;;;;;5046459;28;20072;-66
2022/07/07 05:33:54;;;;;;;7.90;7.03;;;;;;;;;;5043683;28;20104;-65
2022/07/07 05:36:19;;;;;;;6.82;6.32;;;;;;;;;;5043634;28;20033;-66
2022/07/07 05:38:45;;;;;;;7.32;6.72;;;;;;;;;;5046396;28;20033;-65
2022/07/07 05:41:11;;;;;;;7.38;6.78;;;;;;;;;;5043182;28;20040;-65
2022/07/07 05:43:37;;;;;;;8.68;7.10;;;;;;;;;;5045970;28;20396;-66
2022/07/07 05:46:03;;;;;;;7.18;6.63;;;;;;;;;;5047503;28;20025;-66
2022/07/07 05:48:28;;;;;;;7.00;6.50;;;;;;;;;;5047890;28;20037;-66
2022/07/07 05:50:54;;;;;;;7.70;7.00;;;;;;;;;;5043789;28;20447;-65
2022/07/07 05:53:20;;;;;;;7.75;7.00;;;;;;;;;;5044547;28;20038;-64
2022/07/07 05:55:45;;;;;;;8.02;7.22;;;;;;;;;;5046091;28;20044;-65
2022/07/07 05:58:12;;;;;;;9.60;7.03;;;;;;;;;;5043603;28;20056;-65
2022/07/07 06:00:38;;;;;;;7.20;6.70;;;;;;;;;;5045186;28;20610;-65
2022/07/07 06:03:03;;;;;;;7.63;7.03;;;;;;;;;;5044674;28;20045;-65
2022/07/07 06:05:29;;;;;;;7.95;7.35;;;;;;;;;;5043913;28;20043;-65
2022/07/07 06:07:55;;;;;;;7.90;7.13;;;;;;;;;;5045896;28;20072;-66
2022/07/07 06:10:20;;;;;;;7.43;6.90;;;;;;;;;;5046133;28;20060;-65
2022/07/07 06:12:46;;;;;;;7.47;6.93;;;;;;;;;;5046888;28;20025;-65
2022/07/07 06:15:12;;;;;;;8.23;7.25;;;;;;;;;;5048922;28;20032;-64
2022/07/07 06:17:38;;;;;;;7.93;7.32;;;;;;;;;;5042820;28;20403;-66
2022/07/07 06:20:04;;;;;;;9.98;7.70;;;;;;;;;;5053251;28;20064;-65
2022/07/07 06:22:29;;;;;;;8.00;7.22;;;;;;;;;;5046777;28;20032;-66
2022/07/07 06:24:55;;;;;;;7.53;6.93;;;;;;;;;;5045726;28;20124;-65
2022/07/07 06:27:21;;;;;;;7.10;6.60;;;;;;;;;;5037696;28;20045;-64
2022/07/07 06:29:47;;;;;;;7.22;6.50;;;;;;;;;;5048071;28;20077;-66
2022/07/07 06:32:15;;;;;;;6.82;6.32;;;;;;;;;;5043393;28;20040;-66
2022/07/07 06:34:41;;;;;;;6.53;6.10;;;;;;;;;;5043625;28;20451;-66
2022/07/07 06:37:07;;;;;;;6.60;6.00;;;;;;;;;;5042030;28;20060;-65
2022/07/07 06:39:33;;;;;;;6.82;6.32;;;;;;;;;;5044069;28;20029;-66
2022/07/07 06:41:59;;;;;;;7.20;6.50;;;;;;;;;;5047472;28;20108;-65
2022/07/07 06:44:31;;;;;;;7.22;6.60;;;;;;;;;;5041517;28;20033;-65
2022/07/07 06:46:58;;;;;;;6.40;5.80;;;;;;;;;;5053462;28;20387;-65
2022/07/07 06:49:27;;;;;;;7.00;6.00;;;;;;;;;;5041464;28;20292;-65
2022/07/07 06:51:54;;;;;;;6.88;6.28;;;;;;;;;;5041804;28;20041;-65
2022/07/07 06:54:20;;;;;;;6.47;5.85;;;;;;;;;;5042447;28;20133;-64
2022/07/07 06:56:45;;;;;;;6.90;6.30;;;;;;;;;;5047252;28;20506;-64
2022/07/07 06:59:11;;;;;;;6.35;5.93;;;;;;;;;;5038766;28;20033;-64
2022/07/07 07:01:37;;;;;;;6.35;5.80;;;;;;;;;;5045711;28;20055;-66
2022/07/07 07:04:03;;;;;;;6.25;5.85;;;;;;;;;;5044970;28;20119;-66
2022/07/07 07:06:29;;;;;;;6.28;5.70;;;;;;;;;;5053187;28;20044;-65
2022/07/07 07:08:55;;;;;;;6.22;5.68;;;;;;;;;;5044514;28;20530;-64
2022/07/07 07:11:21;;;;;;;6.80;6.05;;;;;;;;;;5047990;28;20036;-65
2022/07/07 07:13:49;;;;;;;6.63;6.13;;;;;;;;;;5044200;28;20021;-65
2022/07/07 07:16:16;;;;;;;6.38;5.97;;;;;;;;;;5049742;28;20040;-65
2022/07/07 07:18:42;;;;;;;6.93;6.50;;;;;;;;;;5049897;28;20033;-65
2022/07/07 07:21:08;;;;;;;6.82;6.32;;;;;;;;;;5045449;28;20028;-65
2022/07/07 07:23:34;;;;;;;9.13;5.97;;;;;;;;;;5041826;28;20484;-65
2022/07/07 07:25:59;;;;;;;6.70;6.20;;;;;;;;;;5045513;28;20038;-65
2022/07/07 07:28:25;;;;;;;6.18;5.68;;;;;;;;;;5044162;28;20388;-64
2022/07/07 07:30:51;;;;;;;8.77;6.18;;;;;;;;;;5040305;28;20040;-65
2022/07/07 07:33:16;;;;;;;7.60;6.38;;;;;;;;;;5046945;28;20441;-64
2022/07/07 07:35:42;;;;;;;6.07;5.50;;;;;;;;;;5040344;28;20045;-65
2022/07/07 07:38:08;;;;;;;8.48;6.00;;;;;;;;;;5045570;28;20405;-65
2022/07/07 07:40:34;;;;;;;6.50;5.63;;;;;;;;;;5038507;28;20508;-64
2022/07/07 07:42:59;;;;;;;6.60;6.10;;;;;;;;;;5045105;28;20426;-65
2022/07/07 07:45:25;;;;;;;8.68;5.55;;;;;;;;;;5042650;28;20041;-64
2022/07/07 07:47:51;;;;;;;6.38;5.90;;;;;;;;;;5047287;28;20029;-65
2022/07/07 07:50:19;;;;;;;8.95;5.78;;;;;;;;;;5043094;28;20043;-64
2022/07/07 07:52:45;;;;;;;6.25;5.65;;;;;;;;;;5043082;28;20032;-64
2022/07/07 07:55:12;;;;;;;7.22;6.00;;;;;;;;;;5045554;28;20464;-64
2022/07/07 07:57:38;;;;;;;7.32;6.35;;;;;;;;;;5042916;28;20039;-65
2022/07/07 08:00:06;;;;;;;7.35;6.68;;;;;;;;;;5038037;28;20029;-64
2022/07/07 08:02:38;;;;;;;7.13;6.45;;;;;;;;;;5041147;28;20415;-64
2022/07/07 08:05:04;;;;;;;6.93;6.32;;;;;;;;;;5048485;28;20128;-65
2022/07/07 08:07:30;;;;;;;6.28;5.72;;;;;;;;;;5047388;28;20540;-65
2022/07/07 08:09:55;;;;;;;7.90;6.30;;;;;;;;;;5045799;28;20108;-64
2022/07/07 08:12:21;;;;;;;7.20;6.50;;;;;;;;;;5044479;28;20115;-64
2022/07/07 08:14:47;;;;;;;7.03;6.28;;;;;;;;;;5041985;28;20043;-64
2022/07/07 08:17:12;;;;;;;7.45;6.75;;;;;;;;;;5041732;28;20048;-65
2022/07/07 08:19:38;;;;;;;6.90;6.20;;;;;;;;;;5044667;28;20036;-65
2022/07/07 08:22:04;;;;;;;8.10;6.50;;;;;;;;;;5039458;28;20079;-65
2022/07/07 08:24:29;;;;;;;7.78;5.93;;;;;;;;;;5044912;28;20492;-65
2022/07/07 08:26:55;;;;;;;7.47;6.80;;;;;;;;;;5044531;28;20025;-64
2022/07/07 08:29:21;;;;;;;6.82;6.25;;;;;;;;;;5043209;28;20048;-65
2022/07/07 08:31:46;;;;;;;7.50;6.45;;;;;;;;;;5041850;28;20039;-65
2022/07/07 08:34:12;;;;;;;7.72;6.50;;;;;;;;;;5043358;28;20442;-64
2022/07/07 08:36:38;;;;;;;6.60;6.00;;;;;;;;;;5047786;28;20578;-64
2022/07/07 08:39:03;;;;;;;8.00;6.30;;;;;;;;;;5048892;28;20037;-65
2022/07/07 08:41:29;;;;;;;7.22;6.55;;;;;;;;;;5046840;28;20039;-64
2022/07/07 08:43:55;;;;;;;10.05;6.47;;;;;;;;;;5044973;28;20032;-64
2022/07/07 08:46:22;;;;;;;12.88;6.57;;;;;;;;;;5044750;28;20481;-65
2022/07/07 08:48:47;;;;;;;7.13;6.43;;;;;;;;;;5049909;28;20036;-65
2022/07/07 08:51:15;;;;;;;6.95;6.18;;;;;;;;;;5049883;28;20032;-64
2022/07/07 08:53:44;;;;;;;8.07;6.50;;;;;;;;;;5044709;28;20025;-65
2022/07/07 08:56:10;;;;;;;;;;;;;;;;;;5050038;28;20032;-65
2022/07/07 08:58:36;;;;;;;6.50;6.00;;;;;;;;;;5046379;28;20326;-65
2022/07/07 09:01:07;;;;;;;6.70;6.05;;;;;;;;;;5046893;28;20073;-65
2022/07/07 09:03:33;;;;;;;9.48;6.70;;;;;;;;;;5043684;28;20055;-65
2022/07/07 09:05:59;;;;;;;6.47;6.05;;;;;;;;;;5048388;28;20036;-65
2022/07/07 09:08:27;;;;;;;6.72;6.15;;;;;;;;;;5046750;28;20029;-65
2022/07/07 09:10:54;;;;;;;6.97;6.28;;;;;;;;;;5046589;28;20033;-63
2022/07/07 09:13:31;;;;;;;6.80;6.30;;;;;;;;;;5041759;28;20116;-65
2022/07/07 09:16:01;;;;;;;7.63;6.82;;;;;;;;;;5043453;28;20480;-65
2022/07/07 09:18:33;;;;;;;11.10;6.20;;;;;;;;;;5043354;28;20429;-66
2022/07/07 09:21:04;;;;;;;7.38;5.97;;;;;;;;;;5049977;28;20549;-65
2022/07/07 09:23:30;;;;;;;6.63;6.03;;;;;;;;;;5042707;28;20033;-64
2022/07/07 09:25:56;;;;;;;7.35;6.60;;;;;;;;;;5046531;28;20136;-65
2022/07/07 09:28:24;;;;;;;7.50;6.80;;;;;;;;;;5046856;28;20500;-64
2022/07/07 09:30:50;;;;;;;8.50;6.40;;;;;;;;;;5039075;28;20029;-65
2022/07/07 09:33:21;;;;;;;6.80;6.07;;;;;;;;;;5048428;28;20093;-65
2022/07/07 09:38:34;;;;;;;6.93;6.20;;;;;;;;;;5047498;28;20064;-64
2022/07/07 09:41:12;;;;;;;6.95;5.82;;;;;;;;;;5044621;28;20029;-64
2022/07/07 09:43:52;;;;;;;7.20;6.50;;;;;;;;;;5045172;28;20025;-64
2022/07/07 09:46:23;;;;;;;7.15;6.65;;;;;;;;;;5035843;28;20069;-65
2022/07/07 09:48:53;;;;;;;9.38;6.15;;;;;;;;;;5041957;28;20109;-65
2022/07/07 09:51:30;;;;;;;6.25;5.75;;;;;;;;;;5048233;28;20380;-64
2022/07/07 09:54:16;;;;;;;6.40;5.80;;;;;;;;;;5045053;28;20056;-65
2022/07/07 09:56:47;;;;;;;6.03;5.63;;;;;;;;;;5046172;28;20033;-64
2022/07/07 09:59:15;;;;;;;7.15;5.68;;;;;;;;;;5042984;28;20491;-64
2022/07/07 10:01:44;;;;;;;6.13;5.65;;;;;;;;;;5047406;28;20626;-66
2022/07/07 10:04:19;;;;;;;7.28;5.93;;;;;;;;;;5049847;28;20370;-65
2022/07/07 10:06:45;;;;;;;6.47;5.88;;;;;;;;;;5054563;28;20404;-65
2022/07/07 10:09:21;;;;;;;6.10;5.70;;;;;;;;;;5042629;28;20056;-65
2022/07/07 10:11:54;;;;;;;6.18;5.65;;;;;;;;;;5043851;28;20530;-64
2022/07/07 10:14:22;;;;;;;6.15;5.57;;;;;;;;;;5047411;28;20036;-65
2022/07/07 10:16:50;;;;;;;6.28;5.78;;;;;;;;;;5043686;28;20076;-64
2022/07/07 10:19:18;;;;;;;6.13;5.70;;;;;;;;;;5047411;28;20567;-64
2022/07/07 10:21:46;;;;;;;6.60;6.10;;;;;;;;;;5041842;28;20040;-64
2022/07/07 10:24:14;;;;;;;6.70;6.10;;;;;;;;;;5045313;28;20040;-64
2022/07/07 10:26:47;;;;;;;5.82;5.50;;;;;;;;;;5045603;28;20024;-65
2022/07/07 10:29:12;;;;;;;6.50;6.00;;;;;;;;;;5045561;28;20124;-64
2022/07/07 10:31:39;;;;;;;6.22;5.72;;;;;;;;;;5045058;28;20125;-64
2022/07/07 10:34:08;;;;;;;6.32;5.90;;;;;;;;;;5046266;28;20457;-64
2022/07/07 10:36:45;;;;;;;6.95;6.43;;;;;;;;;;5046307;28;20033;-65
2022/07/07 10:39:12;;;;;;;7.00;6.47;;;;;;;;;;5046621;28;20048;-64
2022/07/07 10:41:40;;;;;;;6.60;6.00;;;;;;;;;;5047527;28;20028;-65
2022/07/07 10:44:09;;;;;;;7.75;6.10;;;;;;;;;;5042899;28;20041;-64
2022/07/07 10:46:36;;;;;;;6.38;5.88;;;;;;;;;;5044054;28;20029;-65
2022/07/07 10:49:40;;;;;;;6.70;6.15;;;;;;;;;;5042289;28;20037;-65
2022/07/07 10:52:12;;;;;;;6.68;6.13;;;;;;;;;;5045982;28;20040;-64
2022/07/07 10:54:40;;;;;;;7.15;6.60;;;;;;;;;;5042938;28;20036;-64
2022/07/07 10:57:05;;;;;;;6.45;5.95;;;;;;;;;;5042041;28;20366;-66
2022/07/07 11:00:09;;;;;;;6.65;6.15;;;;;;;;;;5044302;28;20029;-63
2022/07/07 11:03:07;;;;;;;6.65;6.15;;;;;;;;;;5043434;28;20029;-65
2022/07/07 11:05:33;;;;;;;6.25;5.85;;;;;;;;;;5045658;28;20093;-64
2022/07/07 11:07:59;;;;;;;6.15;5.75;;;;;;;;;;5043267;28;20033;-65
2022/07/07 11:10:36;;;;;;;6.90;6.30;;;;;;;;;;5045055;28;20044;-65
2022/07/07 11:13:22;;;;;;;6.68;6.18;;;;;;;;;;5044044;28;20112;-64
2022/07/07 11:16:07;;;;;;;6.38;5.88;;;;;;;;;;5038388;28;20492;-66
2022/07/07 11:18:34;;;;;;;6.40;5.93;;;;;;;;;;5039545;28;20128;-66
2022/07/07 11:21:02;;;;;;;6.07;5.53;;;;;;;;;;5042248;28;20052;-65
2022/07/07 11:23:51;;;;;;;6.50;5.90;;;;;;;;;;5038449;28;20400;-65
2022/07/07 11:26:20;;;;;;;6.00;5.50;;;;;;;;;;5043147;28;20060;-65
2022/07/07 11:28:46;;;;;;;5.82;5.43;;;;;;;;;;5044261;28;20041;-65
2022/07/07 11:31:12;;;;;;;6.30;5.70;;;;;;;;;;5041989;28;20532;-65
2022/07/07 11:33:39;;;;;;;7.85;6.10;;;;;;;;;;5041241;28;20038;-65
2022/07/07 11:36:22;;;;;;;7.60;5.78;;;;;;;;;;5042972;28;20503;-65
2022/07/07 11:38:51;;;;;;;8.48;5.95;;;;;;;;;;5037860;28;20496;-65
2022/07/07 11:41:17;;;;;;;7.78;6.03;;;;;;;;;;5043486;28;20480;-65
2022/07/07 11:43:43;;;;;;;6.20;5.70;;;;;;;;;;5041490;28;20052;-66
2022/07/07 11:46:09;;;;;;;6.63;5.72;;;;;;;;;;5044422;28;20036;-66
2022/07/07 11:48:41;;;;;;;5.90;5.53;;;;;;;;;;5042052;28;20029;-65
2022/07/07 11:51:07;;;;;;;6.22;5.38;;;;;;;;;;5047351;28;20694;-65
2022/07/07 11:53:33;;;;;;;5.95;5.45;;;;;;;;;;5043508;28;20550;-65
2022/07/07 11:55:59;;;;;;;5.93;5.53;;;;;;;;;;5040654;28;20082;-65
2022/07/07 11:58:25;;;;;;;5.78;5.38;;;;;;;;;;5042977;28;20029;-64
2022/07/07 12:00:54;;;;;;;8.02;5.65;;;;;;;;;;5045003;28;20515;-64
2022/07/07 12:03:31;;;;;;;6.35;5.75;;;;;;;;;;5041315;28;20036;-63
2022/07/07 12:05:57;;;;;;;6.55;5.80;;;;;;;;;;5039711;28;20063;-64
2022/07/07 12:08:31;;;;;;;6.13;5.63;;;;;;;;;;5041183;28;20377;-64
2022/07/07 12:10:57;;;;;;;7.65;5.72;;;;;;;;;;5047385;28;20037;-65
2022/07/07 12:13:25;;;;;;;6.25;5.75;;;;;;;;;;5050630;28;20166;-64
2022/07/07 12:15:53;;;;;;;7.18;5.68;;;;;;;;;;5047251;28;20095;-66
2022/07/07 12:18:32;;;;;;;5.93;5.53;;;;;;;;;;5044033;28;20430;-65
2022/07/07 12:20:58;;;;;;;;;;;;;;;;;;5043041;28;20566;-64
2022/07/07 12:23:24;;;;;;;6.13;5.25;;;;;;;;;;5046455;28;19959;-65
2022/07/07 12:25:50;;;;;;;6.15;5.68;;;;;;;;;;5047564;28;20033;-65
2022/07/07 12:28:16;;;;;;;5.90;5.32;;;;;;;;;;5047169;28;20301;-65
2022/07/07 12:30:50;;;;;;;6.32;5.18;;;;;;;;;;5046697;28;20056;-65
2022/07/07 12:33:29;;;;;;;6.10;5.60;;;;;;;;;;5043942;28;20045;-65
2022/07/07 12:35:59;;;;;;;5.75;5.25;;;;;;;;;;5048754;28;20032;-65
2022/07/07 12:38:38;;;;;;;5.95;5.45;;;;;;;;;;5051578;28;20036;-65
2022/07/07 12:41:04;;;;;;;5.40;4.90;;;;;;;;;;5041638;28;20094;-66
2022/07/07 12:43:34;;;;;;;7.63;5.53;;;;;;;;;;5046229;28;20033;-64
2022/07/07 12:46:12;;;;;;;6.65;5.50;;;;;;;;;;5046633;28;20115;-64
2022/07/07 12:48:51;;;;;;;6.20;5.63;;;;;;;;;;5042358;28;20083;-65
2022/07/07 12:51:24;;;;;;;5.95;5.45;;;;;;;;;;5047128;28;20032;-64
2022/07/07 12:53:49;;;;;;;6.03;5.43;;;;;;;;;;5044968;28;20087;-65
2022/07/07 12:56:15;;;;;;;6.28;5.20;;;;;;;;;;5044119;28;20052;-65
2022/07/07 12:58:42;;;;;;;6.07;5.53;;;;;;;;;;5042795;28;20048;-65
2022/07/07 13:01:08;;;;;;;7.38;5.47;;;;;;;;;;5045375;28;20106;-65
2022/07/07 13:03:33;;;;;;;5.88;5.40;;;;;;;;;;5044032;28;20032;-65
2022/07/07 13:06:00;;;;;;;7.05;5.60;;;;;;;;;;5046352;28;20477;-64
2022/07/07 13:08:26;;;;;;;6.78;5.20;;;;;;;;;;5042868;28;20036;-65
2022/07/07 13:10:52;;;;;;;5.70;4.90;;;;;;;;;;5045645;28;20044;-65
2022/07/07 13:13:18;;;;;;;6.18;5.57;;;;;;;;;;5043291;28;20068;-65
2022/07/07 13:15:43;;;;;;;5.85;5.35;;;;;;;;;;5044493;28;20033;-64
2022/07/07 13:18:09;;;;;;;5.40;5.00;;;;;;;;;;5043435;28;20069;-65
2022/07/07 13:20:35;;;;;;;5.53;5.13;;;;;;;;;;5043215;28;20048;-64
2022/07/07 13:23:01;;;;;;;6.13;5.22;;;;;;;;;;5047929;28;20506;-66
2022/07/07 13:25:26;;;;;;;6.00;5.47;;;;;;;;;;5043607;28;20045;-64
2022/07/07 13:27:52;;;;;;;5.50;5.00;;;;;;;;;;5044547;28;20029;-66
2022/07/07 13:30:18;;;;;;;6.55;5.40;;;;;;;;;;5043392;28;20488;-65
2022/07/07 13:32:43;;;;;;;7.65;5.53;;;;;;;;;;5045782;28;20439;-63
2022/07/07 13:35:10;;;;;;;6.03;5.20;;;;;;;;;;5042091;28;20053;-64
2022/07/07 13:37:36;;;;;;;5.95;5.45;;;;;;;;;;5045371;28;20064;-64
2022/07/07 13:40:03;;;;;;;6.15;5.72;;;;;;;;;;5040026;28;20048;-65
2022/07/07 13:42:28;;;;;;;5.80;5.28;;;;;;;;;;5048144;28;20063;-64
2022/07/07 13:44:54;;;;;;;7.30;5.57;;;;;;;;;;5044701;28;20658;-66
2022/07/07 13:47:20;;;;;;;5.85;5.32;;;;;;;;;;5045638;28;20701;-65
2022/07/07 13:49:45;;;;;;;6.57;5.95;;;;;;;;;;5041330;28;20047;-64
2022/07/07 13:52:11;;;;;;;6.43;5.82;;;;;;;;;;5043679;28;20048;-64
2022/07/07 13:54:39;;;;;;;7.95;6.25;;;;;;;;;;5042111;28;20392;-65
2022/07/07 13:57:06;;;;;;;5.95;5.45;;;;;;;;;;5046358;28;20378;-65
2022/07/07 13:59:31;;;;;;;6.03;5.43;;;;;;;;;;5046123;28;20404;-65
2022/07/07 14:01:57;;;;;;;6.28;5.78;;;;;;;;;;5043167;28;20025;-65
2022/07/07 14:04:23;;;;;;;6.13;5.63;;;;;;;;;;5041241;28;20090;-65
2022/07/07 14:06:49;;;;;;;6.82;6.05;;;;;;;;;;5039495;28;20041;-65
2022/07/07 14:09:14;;;;;;;6.95;5.90;;;;;;;;;;5050300;28;20036;-64
2022/07/07 14:11:40;;;;;;;5.78;5.25;;;;;;;;;;5041109;28;20075;-64
2022/07/07 14:14:06;;;;;;;6.25;5.85;;;;;;;;;;5045714;28;20041;-64
2022/07/07 14:16:31;;;;;;;7.63;5.40;;;;;;;;;;5040383;28;20041;-64
2022/07/07 14:18:58;;;;;;;4.93;4.53;;;;;;;;;;5042722;28;20044;-64
2022/07/07 14:21:24;;;;;;;14.77;4.80;;;;;;;;;;5045042;28;20086;-64
2022/07/07 14:23:51;;;;;;;5.30;5.00;;;;;;;;;;5045760;28;20454;-66
2022/07/07 14:26:17;;;;;;;5.30;5.00;;;;;;;;;;5038754;28;20075;-65
2022/07/07 14:28:43;;;;;;;5.53;5.13;;;;;;;;;;5045495;28;20057;-65
2022/07/07 14:31:09;;;;;;;5.28;4.90;;;;;;;;;;5043030;28;20389;-65
2022/07/07 14:33:35;;;;;;;5.07;4.68;;;;;;;;;;5042008;28;20036;-64
2022/07/07 14:36:00;;;;;;;5.35;4.90;;;;;;;;;;5042805;28;20098;-64
2022/07/07 14:38:26;;;;;;;5.35;4.82;;;;;;;;;;5043384;28;20191;-64
2022/07/07 14:40:52;;;;;;;5.30;4.90;;;;;;;;;;5040710;28;20037;-64
2022/07/07 14:43:18;;;;;;;5.25;4.95;;;;;;;;;;5040037;28;20071;-64
2022/07/07 14:45:46;;;;;;;5.82;5.35;;;;;;;;;;5047612;28;20492;-64